Time;durP1;ratioP1;P1;durP2;ratioP2;P2;SDS_P1;SDS_P2;PMS_P1;PMS_P2;Temp;Humidity;BMP_temperature;BMP_pressure;BME280_temperature;BME280_humidity;BME280_pressure;Samples;Min_cycle;Max_cycle;Signal;HPM_P1;HPM_P2
2022/01/02 00:01:00;;;;;;;13.25;6.55;;;;;;;11.38;100.00;101534.16;5074985;28;20028;-51
2022/01/02 00:03:26;;;;;;;12.15;6.30;;;;;;;11.30;100.00;101515.00;5058045;28;20471;-53
2022/01/02 00:05:53;;;;;;;17.40;6.75;;;;;;;11.23;100.00;101495.00;5057256;28;20033;-55
2022/01/02 00:08:19;;;;;;;13.20;6.70;;;;;;;10.99;100.00;101450.81;5074899;28;20430;-52
2022/01/02 00:10:57;;;;;;;11.43;6.63;;;;;;;11.05;100.00;101462.06;5074764;28;20032;-53
2022/01/02 00:13:31;;;;;;;11.30;6.50;;;;;;;11.20;100.00;101476.63;5056844;28;20063;-53
2022/01/02 00:16:02;;;;;;;15.82;7.20;;;;;;;11.26;100.00;101487.03;5056944;28;20045;-56
2022/01/02 00:18:31;;;;;;;13.52;6.60;;;;;;;11.21;100.00;101494.16;5074875;28;20131;-53
2022/01/02 00:20:59;;;;;;;13.02;7.15;;;;;;;11.01;100.00;101463.03;5074909;28;20043;-52
2022/01/02 00:23:30;;;;;;;13.00;6.90;;;;;;;11.26;100.00;101493.16;5074582;28;20033;-58
2022/01/02 00:25:56;;;;;;;;;;;;;;;11.25;100.00;101495.81;5074953;28;20082;-53
2022/01/02 00:28:21;;;;;;;13.98;6.72;;;;;;;11.17;100.00;101503.94;5056865;28;19916;-58
2022/01/02 00:30:48;;;;;;;15.60;6.93;;;;;;;11.19;100.00;101490.69;5074652;28;20036;-55
2022/01/02 00:33:13;;;;;;;17.83;7.10;;;;;;;11.23;100.00;101492.38;5056658;28;20043;-52
2022/01/02 00:35:39;;;;;;;13.73;6.63;;;;;;;11.28;100.00;101486.09;5074409;28;20025;-55
2022/01/02 00:38:05;;;;;;;13.18;6.47;;;;;;;11.30;100.00;101470.22;5056300;28;20112;-49
2022/01/02 00:40:33;;;;;;;13.00;6.88;;;;;;;11.29;100.00;101465.88;5074205;28;20041;-55
2022/01/02 00:43:03;;;;;;;15.13;6.45;;;;;;;11.30;100.00;101467.56;5039945;28;20028;-52
2022/01/02 00:45:33;;;;;;;15.93;6.28;;;;;;;10.87;100.00;101383.50;5056461;28;20166;-55
2022/01/02 00:48:12;;;;;;;13.95;6.32;;;;;;;10.90;100.00;101391.31;5056406;28;20056;-56
2022/01/02 00:50:41;;;;;;;11.13;5.82;;;;;;;11.28;100.00;101456.22;5056310;28;20021;-53
2022/01/02 00:53:09;;;;;;;13.13;6.80;;;;;;;11.30;100.00;101449.13;5071494;28;20036;-52
2022/01/02 00:55:35;;;;;;;20.40;7.10;;;;;;;11.26;100.00;101452.75;5056250;28;20122;-53
2022/01/02 00:58:05;;;;;;;15.27;6.80;;;;;;;11.06;100.00;101392.66;5074216;28;20107;-52
2022/01/02 01:00:31;;;;;;;18.02;6.60;;;;;;;10.81;100.00;101367.84;5056062;28;20024;-52
2022/01/02 01:02:59;;;;;;;18.70;6.53;;;;;;;10.89;100.00;101367.63;5055844;28;20391;-53
2022/01/02 01:05:32;;;;;;;16.65;7.10;;;;;;;10.80;100.00;101346.81;5073778;28;20035;-54
2022/01/02 01:08:03;;;;;;;12.20;6.22;;;;;;;11.34;100.00;101442.00;5073874;28;20134;-50
2022/01/02 01:10:31;;;;;;;16.65;6.82;;;;;;;11.37;100.00;101424.34;5073750;28;20031;-51
2022/01/02 01:13:00;;;;;;;18.25;7.03;;;;;;;11.07;100.00;101367.16;5073608;28;20372;-52
2022/01/02 01:15:28;;;;;;;16.23;6.38;;;;;;;11.39;100.00;101412.00;5073764;28;20502;-54
2022/01/02 01:17:55;;;;;;;11.05;6.45;;;;;;;11.34;100.00;101376.13;5073586;28;20033;-56
2022/01/02 01:20:22;;;;;;;17.45;7.18;;;;;;;11.30;100.00;101359.53;5073423;28;20044;-54
2022/01/02 01:22:48;;;;;;;12.13;6.97;;;;;;;11.34;100.00;101360.31;5073558;28;20487;-55
2022/01/02 01:25:17;;;;;;;18.95;6.50;;;;;;;11.22;100.00;101343.94;5073677;28;20059;-51
2022/01/02 01:27:43;;;;;;;11.90;6.68;;;;;;;10.94;100.00;101298.16;5056040;28;20035;-53
2022/01/02 01:30:10;;;;;;;12.95;5.85;;;;;;;11.02;100.00;101311.13;5073341;28;20028;-50
2022/01/02 01:32:36;;;;;;;14.98;5.97;;;;;;;11.37;100.00;101384.81;5073172;28;20534;-52
2022/01/02 01:35:02;;;;;;;14.50;5.32;;;;;;;11.13;100.00;101328.38;5073560;28;20036;-53
2022/01/02 01:37:28;;;;;;;13.15;5.20;;;;;;;11.43;100.00;101367.97;5073345;28;20120;-52
2022/01/02 01:39:53;;;;;;;18.70;5.82;;;;;;;11.50;100.00;101383.56;5055315;28;20059;-50
2022/01/02 01:42:29;;;;;;;12.73;5.28;;;;;;;11.16;100.00;101301.06;5055104;28;20395;-54
2022/01/02 01:47:29;;;;;;;16.13;5.32;;;;;;;11.70;100.00;101354.06;5056667;28;20527;-55
2022/01/02 01:49:54;;;;;;;9.45;5.05;;;;;;;11.72;100.00;101360.13;5073096;28;20075;-54
2022/01/02 01:52:20;;;;;;;14.80;5.53;;;;;;;11.36;100.00;101282.06;5072795;28;20032;-51
2022/01/02 01:54:45;;;;;;;13.93;5.53;;;;;;;11.43;100.00;101300.31;5072863;28;20024;-52
2022/01/02 01:57:11;;;;;;;10.20;5.18;;;;;;;11.62;100.00;101333.13;5072816;28;20093;-55
2022/01/02 01:59:36;;;;;;;12.60;5.38;;;;;;;11.28;100.00;101287.56;5034895;28;20044;-53
2022/01/02 02:02:01;;;;;;;15.50;5.93;;;;;;;11.29;100.00;101295.41;5049569;28;20034;-56
2022/01/02 02:04:28;;;;;;;11.13;4.55;;;;;;;11.39;100.00;101296.00;5054514;28;20063;-54
2022/01/02 02:06:55;;;;;;;16.13;5.28;;;;;;;11.70;100.00;101332.97;5072862;28;20028;-54
2022/01/02 02:09:24;;;;;;;10.77;4.65;;;;;;;11.76;100.00;101338.91;5072398;28;20106;-53
2022/01/02 02:11:50;;;;;;;13.95;5.30;;;;;;;11.45;100.00;101265.97;5072542;28;20039;-48
2022/01/02 02:14:16;;;;;;;13.55;4.63;;;;;;;11.40;100.00;101247.69;5054544;28;20032;-52
2022/01/02 02:16:41;;;;;;;12.48;4.53;;;;;;;11.52;100.00;101260.50;5072649;28;20108;-51
2022/01/02 02:19:07;;;;;;;12.20;4.22;;;;;;;11.89;100.00;101312.16;5072370;28;20131;-52
2022/01/02 02:21:35;;;;;;;12.88;4.13;;;;;;;11.45;100.00;101244.88;5054652;28;20033;-51
2022/01/02 02:24:02;;;;;;;15.18;5.32;;;;;;;12.07;100.00;101336.22;5054400;28;20471;-51
2022/01/02 02:26:28;;;;;;;12.48;4.57;;;;;;;12.12;100.00;101338.72;5072259;28;20036;-56
2022/01/02 02:28:53;;;;;;;10.93;4.30;;;;;;;12.21;100.00;101326.09;5072227;28;20036;-50
2022/01/02 02:31:19;;;;;;;14.00;3.90;;;;;;;12.05;100.00;101301.13;5072520;28;20025;-53
2022/01/02 02:33:44;;;;;;;12.27;4.10;;;;;;;12.31;100.00;101324.03;5072265;28;20158;-49
2022/01/02 02:36:09;;;;;;;14.00;3.95;;;;;;;12.33;100.00;101306.38;5072239;28;20521;-50
2022/01/02 02:38:38;;;;;;;12.60;4.00;;;;;;;12.29;100.00;101313.50;5071987;28;20538;-51
2022/01/02 02:41:03;;;;;;;10.98;4.25;;;;;;;12.15;100.00;101281.41;5071870;28;20060;-53
2022/01/02 02:43:38;;;;;;;14.48;4.30;;;;;;;12.03;100.00;101244.00;5071865;28;20071;-54
2022/01/02 02:51:31;;;;;;;;;;;;;;;12.56;100.00;101292.41;5073530;28;20452;-55
2022/01/02 02:53:56;;;;;;;13.63;4.05;;;;;;;12.33;100.00;101249.16;5072071;28;20347;-53
2022/01/02 02:56:25;;;;;;;9.82;3.20;;;;;;;12.59;100.00;101282.63;5072094;28;20039;-51
2022/01/02 02:58:55;;;;;;;12.70;3.75;;;;;;;12.68;100.00;101295.50;5054450;28;20388;-49
2022/01/02 03:01:22;;;;;;;11.00;3.53;;;;;;;12.60;100.00;101288.75;5072008;28;20020;-53
2022/01/02 03:03:48;;;;;;;8.35;3.17;;;;;;;12.74;100.00;101313.78;5071905;28;20773;-52
2022/01/02 03:06:14;;;;;;;11.32;4.05;;;;;;;12.76;100.00;101304.03;5071807;28;20086;-51
2022/01/02 03:08:41;;;;;;;12.13;3.45;;;;;;;12.41;100.00;101244.47;5072134;28;20040;-52
2022/01/02 03:11:09;;;;;;;14.43;3.30;;;;;;;12.81;100.00;101303.91;5072056;28;20062;-50
2022/01/02 03:13:35;;;;;;;14.73;4.07;;;;;;;12.48;100.00;101225.78;5054290;28;20395;-51
2022/01/02 03:16:00;;;;;;;10.73;3.45;;;;;;;12.59;100.00;101231.56;5071803;28;20043;-53
2022/01/02 03:18:25;;;;;;;11.30;3.53;;;;;;;12.85;100.00;101272.03;5075708;28;20036;-51
2022/01/02 03:20:51;;;;;;;9.68;3.40;;;;;;;12.67;100.00;101251.50;5075576;28;21345;-51
2022/01/02 03:23:16;;;;;;;13.20;3.58;;;;;;;12.29;100.00;101207.06;5076193;28;20029;-53
2022/01/02 03:25:41;;;;;;;16.05;3.67;;;;;;;12.16;100.00;101185.50;5075763;28;20116;-52
2022/01/02 03:28:07;;;;;;;11.27;3.60;;;;;;;12.42;100.00;101250.63;5075685;28;20067;-53
2022/01/02 03:30:32;;;;;;;9.18;3.40;;;;;;;12.50;100.00;101255.63;5075645;28;20115;-50
2022/01/02 03:32:57;;;;;;;9.20;3.03;;;;;;;12.52;100.00;101265.22;5075686;28;20119;-52
2022/01/02 03:35:23;;;;;;;14.52;3.58;;;;;;;12.51;100.00;101233.63;5075545;28;20407;-51
2022/01/02 03:37:49;;;;;;;10.65;3.47;;;;;;;12.43;100.00;101225.97;5073676;28;20475;-51
2022/01/02 03:40:15;;;;;;;13.55;3.90;;;;;;;12.49;100.00;101243.38;5075700;28;20594;-48
2022/01/02 03:42:40;;;;;;;10.93;3.80;;;;;;;12.46;100.00;101241.72;5075624;28;20119;-52
2022/01/02 03:45:06;;;;;;;9.30;3.13;;;;;;;12.05;100.00;101165.69;5075455;28;20028;-50
2022/01/02 03:47:32;;;;;;;8.30;3.78;;;;;;;12.44;100.00;101217.13;5075106;28;20032;-50
2022/01/02 03:49:57;;;;;;;10.93;3.90;;;;;;;12.58;100.00;101235.97;5075097;28;20036;-50
2022/01/02 03:52:26;;;;;;;10.90;3.10;;;;;;;12.60;100.00;101239.44;5075172;28;20040;-51
2022/01/02 03:54:51;;;;;;;10.73;3.35;;;;;;;12.64;100.00;101233.13;5075700;28;20037;-51
2022/01/02 03:57:17;;;;;;;9.40;3.05;;;;;;;12.29;100.00;101143.72;5075121;28;20029;-55
2022/01/02 03:59:42;;;;;;;10.85;2.97;;;;;;;12.71;100.00;101202.09;5075182;28;20135;-53
2022/01/02 04:02:08;;;;;;;10.55;3.13;;;;;;;12.32;100.00;101148.88;5056986;28;20040;-53
2022/01/02 04:04:33;;;;;;;7.30;2.83;;;;;;;12.66;100.00;101207.56;5074819;28;20430;-51
2022/01/02 04:06:58;;;;;;;8.73;3.13;;;;;;;12.72;100.00;101217.03;5074798;28;20017;-53
2022/01/02 04:09:24;;;;;;;12.10;3.10;;;;;;;12.73;100.00;101202.88;5074835;28;20045;-52
2022/01/02 04:11:49;;;;;;;12.70;3.28;;;;;;;12.39;100.00;101143.38;5074945;28;20067;-51
2022/01/02 04:14:14;;;;;;;9.63;2.83;;;;;;;12.82;100.00;101213.13;5074940;28;20028;-54
2022/01/02 04:16:40;;;;;;;11.68;3.58;;;;;;;12.78;100.00;101211.53;5056855;28;20024;-49
2022/01/02 04:19:05;;;;;;;9.98;3.15;;;;;;;12.33;100.00;101135.66;5074665;28;20032;-51
2022/01/02 04:21:30;;;;;;;9.77;3.72;;;;;;;12.69;100.00;101210.09;5074668;28;20029;-51
2022/01/02 04:23:56;;;;;;;12.18;3.60;;;;;;;12.32;100.00;101151.53;5074620;28;20043;-55
2022/01/02 04:26:21;;;;;;;11.98;3.67;;;;;;;12.62;100.00;101208.56;5074491;28;20116;-48
2022/01/02 04:28:46;;;;;;;8.02;3.22;;;;;;;12.59;100.00;101205.16;5040008;28;20020;-51
2022/01/02 04:31:12;;;;;;;8.00;3.15;;;;;;;12.53;100.00;101187.75;5074534;28;20115;-51
2022/01/02 04:33:38;;;;;;;9.18;3.70;;;;;;;12.27;100.00;101138.50;5074486;28;20046;-50
2022/01/02 04:36:04;;;;;;;14.82;3.80;;;;;;;12.08;100.00;101111.03;5056449;28;20094;-53
2022/01/02 04:38:29;;;;;;;7.95;3.58;;;;;;;12.11;100.00;101108.25;5061372;28;20044;-52
2022/01/02 04:40:54;;;;;;;10.00;4.30;;;;;;;12.46;100.00;101161.63;5065783;28;20052;-53
2022/01/02 04:43:20;;;;;;;13.05;3.75;;;;;;;12.33;100.00;101140.94;5073546;28;20036;-51
2022/01/02 04:45:45;;;;;;;7.30;4.20;;;;;;;11.96;100.00;101068.38;5052283;28;20064;-54
2022/01/02 04:48:11;;;;;;;14.82;4.35;;;;;;;12.39;100.00;101150.41;5054117;28;20040;-53
2022/01/02 04:50:36;;;;;;;14.10;4.30;;;;;;;11.88;100.00;101065.97;5040996;28;20041;-53
2022/01/02 04:53:01;;;;;;;9.75;3.88;;;;;;;12.00;100.00;101091.06;5072587;28;20032;-51
2022/01/02 04:55:27;;;;;;;10.45;3.40;;;;;;;12.06;100.00;101094.38;5054673;28;20089;-53
2022/01/02 04:57:52;;;;;;;11.10;4.00;;;;;;;12.30;100.00;101126.97;5069617;28;20578;-53
2022/01/02 05:00:17;;;;;;;7.32;3.55;;;;;;;12.34;100.00;101131.25;5067559;28;20127;-49
2022/01/02 05:02:43;;;;;;;8.45;3.40;;;;;;;12.31;100.00;101112.88;5073984;28;20035;-55
2022/01/02 05:05:08;;;;;;;10.50;3.30;;;;;;;12.17;100.00;101089.56;5073644;28;20037;-49
2022/01/02 05:07:33;;;;;;;7.20;3.60;;;;;;;11.82;100.00;101030.13;5074007;28;20071;-48
2022/01/02 05:10:00;;;;;;;8.20;3.58;;;;;;;12.27;100.00;101105.97;5059646;28;20065;-50
2022/01/02 05:12:25;;;;;;;8.35;3.50;;;;;;;11.90;100.00;101037.78;5054923;28;20397;-48
2022/01/02 05:14:51;;;;;;;7.20;3.08;;;;;;;12.06;100.00;101070.63;5036040;28;20124;-49
2022/01/02 05:17:16;;;;;;;7.80;3.60;;;;;;;12.21;100.00;101092.97;5072701;28;20055;-51
2022/01/02 05:19:41;;;;;;;10.48;3.40;;;;;;;12.12;100.00;101086.25;5046366;28;20047;-53
2022/01/02 05:22:07;;;;;;;6.68;3.58;;;;;;;11.79;100.00;101018.84;5061828;28;20049;-49
2022/01/02 05:24:32;;;;;;;10.15;3.72;;;;;;;12.09;100.00;101061.75;5090490;28;20044;-50
2022/01/02 05:26:57;;;;;;;6.75;2.95;;;;;;;12.01;100.00;101045.31;5092810;28;20039;-50
2022/01/02 05:29:23;;;;;;;7.50;3.88;;;;;;;11.66;100.00;100977.94;5058856;28;20475;-49
2022/01/02 05:31:49;;;;;;;5.65;3.40;;;;;;;12.03;100.00;101030.28;5093890;28;20039;-48
2022/01/02 05:34:14;;;;;;;14.88;3.85;;;;;;;12.02;100.00;101040.00;5093776;28;20114;-53
2022/01/02 05:36:39;;;;;;;9.00;3.80;;;;;;;11.84;100.00;100987.88;5075761;28;20040;-51
2022/01/02 05:39:05;;;;;;;7.07;3.40;;;;;;;11.97;100.00;101028.72;5093269;28;20120;-52
2022/01/02 05:41:32;;;;;;;11.00;3.95;;;;;;;11.85;100.00;100997.50;5075960;28;20475;-54
2022/01/02 05:43:57;;;;;;;6.55;3.42;;;;;;;11.88;100.00;101000.03;5093823;28;20036;-53
2022/01/02 05:46:23;;;;;;;7.70;3.80;;;;;;;11.95;100.00;101013.88;5093662;28;20383;-50
2022/01/02 05:48:50;;;;;;;10.68;4.00;;;;;;;11.67;100.00;100955.94;5075566;28;20028;-54
2022/01/02 05:51:15;;;;;;;6.10;3.97;;;;;;;11.95;100.00;101009.47;5051722;28;20025;-48
2022/01/02 05:53:41;;;;;;;10.40;4.30;;;;;;;11.93;100.00;101005.16;5070006;28;20028;-51
2022/01/02 05:56:06;;;;;;;6.80;3.80;;;;;;;11.95;100.00;101014.75;5072633;28;20388;-50
2022/01/02 05:58:32;;;;;;;6.70;4.05;;;;;;;11.68;100.00;100949.72;5072630;28;20268;-51
2022/01/02 06:00:58;;;;;;;8.52;3.83;;;;;;;11.59;100.00;100927.19;5054924;28;20373;-48
2022/01/02 06:03:23;;;;;;;7.65;3.95;;;;;;;11.99;100.00;100986.47;5072675;28;20040;-51
2022/01/02 06:05:48;;;;;;;8.95;3.45;;;;;;;12.01;100.00;100985.50;5072716;28;20448;-50
2022/01/02 06:08:14;;;;;;;8.57;3.85;;;;;;;11.84;100.00;100961.50;5072418;28;20039;-52
2022/01/02 06:10:39;;;;;;;10.18;4.30;;;;;;;11.81;100.00;100948.44;5072427;28;20048;-54
2022/01/02 06:13:04;;;;;;;7.68;3.80;;;;;;;11.70;100.00;100926.88;5054794;28;20119;-49
2022/01/02 06:15:30;;;;;;;7.40;3.70;;;;;;;11.90;100.00;100961.28;5072613;28;20028;-50
2022/01/02 06:17:55;;;;;;;6.88;3.67;;;;;;;11.56;100.00;100903.56;5072296;28;20032;-47
2022/01/02 06:20:20;;;;;;;9.98;4.25;;;;;;;11.84;100.00;100949.19;5072655;28;20043;-48
2022/01/02 06:22:46;;;;;;;7.45;3.75;;;;;;;11.73;100.00;100924.94;5072429;28;20036;-50
2022/01/02 06:25:11;;;;;;;11.43;4.13;;;;;;;11.81;100.00;100941.38;5054637;28;20123;-47
2022/01/02 06:27:36;;;;;;;7.72;3.90;;;;;;;11.69;100.00;100894.34;5072159;28;20040;-49
2022/01/02 06:30:03;;;;;;;12.45;4.00;;;;;;;11.69;100.00;100910.19;5072413;28;20025;-51
2022/01/02 06:32:29;;;;;;;8.43;3.97;;;;;;;11.70;100.00;100906.59;5072492;28;20071;-48
2022/01/02 06:34:54;;;;;;;8.05;3.35;;;;;;;11.39;100.00;100839.19;5072726;28;20072;-50
2022/01/02 06:37:20;;;;;;;7.78;3.95;;;;;;;11.80;100.00;100904.50;5072178;28;20029;-53
2022/01/02 06:39:45;;;;;;;6.55;3.55;;;;;;;11.77;100.00;100904.63;5054365;28;20384;-53
2022/01/02 06:42:11;;;;;;;10.60;4.15;;;;;;;11.50;100.00;100858.97;5072161;28;20472;-54
2022/01/02 06:44:36;;;;;;;10.27;4.15;;;;;;;11.59;100.00;100871.81;5071880;28;20060;-48
2022/01/02 06:47:02;;;;;;;11.40;3.75;;;;;;;11.51;100.00;100849.28;5071984;28;20036;-51
2022/01/02 06:49:27;;;;;;;6.90;3.55;;;;;;;11.46;100.00;100849.47;5054180;28;20032;-49
2022/01/02 06:51:53;;;;;;;7.32;3.78;;;;;;;11.79;100.00;100886.97;5070976;28;20390;-51
2022/01/02 06:54:18;;;;;;;6.13;3.40;;;;;;;11.87;100.00;100906.00;5072283;28;20029;-47
2022/01/02 06:56:43;;;;;;;8.27;3.08;;;;;;;11.79;100.00;100894.88;5072040;28;20479;-48
2022/01/02 06:59:09;;;;;;;8.77;2.90;;;;;;;11.42;100.00;100842.56;5072019;28;20044;-50
2022/01/02 07:01:34;;;;;;;8.10;3.83;;;;;;;11.77;100.00;100901.97;5071838;28;20036;-50
2022/01/02 07:03:59;;;;;;;9.60;3.75;;;;;;;11.35;100.00;100816.50;5072114;28;20467;-52
2022/01/02 07:06:25;;;;;;;11.23;3.22;;;;;;;11.45;100.00;100837.19;5071923;28;20038;-49
2022/01/02 07:08:50;;;;;;;7.82;3.30;;;;;;;11.83;100.00;100886.78;5071823;28;20058;-46
2022/01/02 07:11:16;;;;;;;9.82;3.58;;;;;;;11.82;100.00;100892.97;5071998;28;20115;-49
2022/01/02 07:13:42;;;;;;;7.75;3.78;;;;;;;11.57;100.00;100842.03;5072269;28;20066;-50
2022/01/02 07:16:07;;;;;;;7.25;3.22;;;;;;;11.89;100.00;100900.66;5071720;28;20041;-51
2022/01/02 07:18:32;;;;;;;9.75;3.00;;;;;;;11.95;100.00;100922.41;5071656;28;20040;-54
2022/01/02 07:20:58;;;;;;;6.38;3.10;;;;;;;12.02;100.00;100917.78;5072261;28;20094;-51
2022/01/02 07:23:23;;;;;;;8.25;3.05;;;;;;;12.06;100.00;100911.44;5072021;28;20586;-52
2022/01/02 07:25:48;;;;;;;7.18;3.35;;;;;;;11.74;100.00;100844.94;5071773;28;20037;-49
2022/01/02 07:28:14;;;;;;;8.13;3.38;;;;;;;12.17;100.00;100917.22;5071635;28;20112;-48
2022/01/02 07:30:39;;;;;;;8.63;3.22;;;;;;;12.23;100.00;100915.19;5071585;28;20072;-52
2022/01/02 07:33:04;;;;;;;8.75;3.65;;;;;;;12.27;100.00;100922.06;5071306;28;20056;-51
2022/01/02 07:35:30;;;;;;;6.07;3.38;;;;;;;12.27;100.00;100900.09;5071888;28;20421;-49
2022/01/02 07:37:57;;;;;;;8.30;3.53;;;;;;;12.32;100.00;100908.69;5053819;28;20040;-50
2022/01/02 07:40:22;;;;;;;9.55;4.03;;;;;;;12.04;100.00;100850.84;5053896;28;20052;-52
2022/01/02 07:42:47;;;;;;;6.93;3.85;;;;;;;12.01;100.00;100858.00;5053673;28;20055;-49
2022/01/02 07:45:13;;;;;;;10.25;3.92;;;;;;;12.05;100.00;100876.31;5071437;28;20064;-50
2022/01/02 07:47:39;;;;;;;6.32;3.90;;;;;;;12.18;100.00;100884.63;5071447;28;20114;-49
2022/01/02 07:50:05;;;;;;;6.63;3.47;;;;;;;11.77;100.00;100783.31;5071493;28;20021;-53
2022/01/02 07:52:30;;;;;;;7.50;3.92;;;;;;;12.15;100.00;100921.66;5071310;28;20479;-51
2022/01/02 07:54:55;;;;;;;7.30;4.18;;;;;;;11.75;100.00;100825.56;5071533;28;20029;-50
2022/01/02 07:57:21;;;;;;;8.55;3.80;;;;;;;12.14;100.00;100902.34;5071412;28;20064;-50
2022/01/02 07:59:46;;;;;;;8.57;4.10;;;;;;;12.04;100.00;100873.72;5071212;28;20044;-51
2022/01/02 08:02:11;;;;;;;8.18;3.58;;;;;;;11.79;100.00;100874.63;5071374;28;20139;-53
2022/01/02 08:04:37;;;;;;;8.75;4.10;;;;;;;11.77;100.00;100841.31;5075039;28;20039;-50
2022/01/02 08:07:02;;;;;;;7.20;3.90;;;;;;;11.90;100.00;100870.75;5074872;28;20111;-52
2022/01/02 08:09:28;;;;;;;8.07;3.88;;;;;;;11.63;100.00;100828.63;5075095;28;20048;-52
2022/01/02 08:11:53;;;;;;;11.95;4.28;;;;;;;12.02;100.00;100899.31;5074720;28;20024;-51
2022/01/02 08:14:19;;;;;;;7.80;4.45;;;;;;;11.59;100.00;100816.47;5074794;28;20032;-51
2022/01/02 08:16:45;;;;;;;8.23;4.05;;;;;;;11.53;100.00;100821.94;5056788;28;20032;-51
2022/01/02 08:19:10;;;;;;;10.45;4.60;;;;;;;11.50;100.00;100824.69;5074734;28;20051;-53
2022/01/02 08:21:35;;;;;;;8.93;4.22;;;;;;;11.97;100.00;100882.78;5074618;28;20043;-52
2022/01/02 08:24:01;;;;;;;9.82;4.50;;;;;;;12.04;100.00;100876.38;5074627;28;20399;-49
2022/01/02 08:26:27;;;;;;;6.97;4.10;;;;;;;12.01;100.00;100885.25;5056905;28;20060;-47
2022/01/02 08:28:52;;;;;;;12.10;4.93;;;;;;;12.05;100.00;100880.72;5074423;28;20087;-49
2022/01/02 08:31:18;;;;;;;9.30;5.22;;;;;;;11.66;100.00;100817.09;5074418;28;20071;-54
2022/01/02 08:33:43;;;;;;;11.90;4.93;;;;;;;12.02;100.00;100880.84;5074464;28;20489;-55
2022/01/02 08:36:09;;;;;;;9.90;4.80;;;;;;;11.68;100.00;100821.41;5074846;28;20040;-56
2022/01/02 08:38:35;;;;;;;7.95;4.15;;;;;;;11.65;100.00;100820.66;5056910;28;20468;-52
2022/01/02 08:41:00;;;;;;;8.98;5.10;;;;;;;11.53;100.00;100810.56;5056804;28;20029;-53
2022/01/02 08:43:25;;;;;;;7.47;4.28;;;;;;;11.49;100.00;100816.88;5074811;28;20025;-52
2022/01/02 08:45:51;;;;;;;10.43;5.22;;;;;;;11.81;100.00;100880.72;5056652;28;20036;-54
2022/01/02 08:48:16;;;;;;;10.20;4.53;;;;;;;11.84;100.00;100895.56;5074769;28;20039;-50
2022/01/02 08:50:41;;;;;;;8.77;4.55;;;;;;;11.43;100.00;100819.72;5074793;28;20422;-55
2022/01/02 08:53:07;;;;;;;11.43;5.28;;;;;;;11.50;100.00;100839.69;5074573;28;20041;-56
2022/01/02 08:55:34;;;;;;;8.15;5.30;;;;;;;11.80;100.00;100892.19;5074724;28;20029;-57
2022/01/02 08:57:59;;;;;;;10.30;5.15;;;;;;;11.81;100.00;100887.78;5074617;28;20033;-53
2022/01/02 09:00:25;;;;;;;8.27;4.50;;;;;;;11.40;100.00;100817.19;5056508;28;20094;-55
2022/01/02 09:02:50;;;;;;;8.02;4.82;;;;;;;11.46;100.00;100809.94;5074458;28;20394;-51
2022/01/02 09:05:15;;;;;;;10.70;5.10;;;;;;;11.83;100.00;100883.28;5073917;28;20033;-54
2022/01/02 09:07:41;;;;;;;10.77;5.45;;;;;;;11.61;100.00;100842.78;5071595;28;20039;-50
2022/01/02 09:10:06;;;;;;;8.57;4.65;;;;;;;11.95;100.00;100905.72;5068471;28;20082;-51
2022/01/02 09:12:32;;;;;;;11.93;4.88;;;;;;;11.61;100.00;100848.94;5073690;28;20547;-49
2022/01/02 09:14:57;;;;;;;8.95;5.45;;;;;;;11.56;100.00;100837.66;5072719;28;20538;-55
2022/01/02 09:17:22;;;;;;;9.70;4.95;;;;;;;11.98;100.00;100924.06;5055939;28;20396;-54
2022/01/02 09:19:49;;;;;;;6.88;4.63;;;;;;;11.93;100.00;100910.19;5055649;28;20033;-55
2022/01/02 09:22:14;;;;;;;9.93;5.47;;;;;;;11.84;100.00;100904.34;5073614;28;20036;-51
2022/01/02 09:24:40;;;;;;;8.98;4.80;;;;;;;11.47;100.00;100838.00;5055850;28;20044;-49
2022/01/02 09:27:05;;;;;;;7.78;5.03;;;;;;;11.84;100.00;100911.41;5070226;28;20037;-52
2022/01/02 09:29:31;;;;;;;8.60;4.95;;;;;;;11.77;100.00;100901.97;5073101;28;20043;-52
2022/01/02 09:31:56;;;;;;;10.82;5.47;;;;;;;11.68;100.00;100894.34;5073514;28;20533;-54
2022/01/02 09:34:22;;;;;;;8.20;5.22;;;;;;;11.70;100.00;100914.50;5055833;28;20024;-51
2022/01/02 09:36:48;;;;;;;12.57;5.30;;;;;;;11.68;100.00;100903.13;5056110;28;20035;-51
2022/01/02 09:39:13;;;;;;;8.02;4.57;;;;;;;11.70;100.00;100903.97;5055796;28;20547;-51
2022/01/02 09:41:39;;;;;;;10.82;5.03;;;;;;;11.73;100.00;100919.69;5073614;28;20119;-53
2022/01/02 09:44:05;;;;;;;8.30;5.03;;;;;;;11.66;100.00;100893.56;5073674;28;20035;-53
2022/01/02 09:46:31;;;;;;;10.27;4.63;;;;;;;11.76;100.00;100873.91;5073555;28;20430;-48
2022/01/02 09:48:56;;;;;;;12.45;5.60;;;;;;;12.01;100.00;100887.03;5073546;28;20299;-52
2022/01/02 09:51:26;;;;;;;11.13;4.80;;;;;;;12.32;100.00;100927.16;5055675;28;20044;-51
2022/01/02 09:53:52;;;;;;;12.98;4.53;;;;;;;12.41;100.00;100906.56;5038861;28;20464;-55
2022/01/02 09:56:18;;;;;;;10.40;4.57;;;;;;;12.35;100.00;100905.94;5038808;28;20024;-50
2022/01/02 09:58:44;;;;;;;15.23;4.38;;;;;;;12.35;100.00;100930.56;5073189;28;20039;-54
2022/01/02 10:01:23;;;;;;;11.73;4.72;;;;;;;12.36;100.00;100929.66;5073502;28;20037;-56
2022/01/02 10:03:51;;;;;;;13.95;4.70;;;;;;;12.04;100.00;100882.50;5055637;28;20082;-50
2022/01/02 10:06:17;;;;;;;11.65;4.50;;;;;;;12.28;100.00;100930.88;5073247;28;20108;-51
2022/01/02 10:08:43;;;;;;;11.88;4.13;;;;;;;12.21;100.00;100922.31;5055035;28;20504;-50
2022/01/02 10:11:22;;;;;;;13.73;4.35;;;;;;;12.23;100.00;100919.63;5072909;28;20043;-52
2022/01/02 10:14:01;;;;;;;11.48;4.07;;;;;;;11.72;100.00;100841.50;5073191;28;20032;-52
2022/01/02 10:16:37;;;;;;;14.50;4.78;;;;;;;12.13;100.00;100907.69;5073296;28;20388;-53
2022/01/02 10:19:29;;;;;;;11.57;4.20;;;;;;;12.22;100.00;100918.75;5072782;28;20024;-55
2022/01/02 10:22:05;;;;;;;13.73;4.60;;;;;;;11.90;100.00;100839.97;5055286;28;20025;-51
2022/01/02 10:24:33;;;;;;;12.75;4.03;;;;;;;12.36;100.00;100929.66;5055197;28;20032;-52
2022/01/02 10:27:19;;;;;;;15.15;4.63;;;;;;;11.96;100.00;100854.69;5072365;28;20388;-48
2022/01/02 10:29:51;;;;;;;15.10;4.85;;;;;;;12.37;100.00;100881.19;5072672;28;20063;-53
2022/01/02 10:32:36;;;;;;;18.30;4.35;;;;;;;12.39;100.00;100921.63;5054368;28;20048;-48
2022/01/02 10:35:21;;;;;;;15.25;4.57;;;;;;;12.40;100.00;100923.31;5055095;28;20039;-49
2022/01/02 10:37:54;;;;;;;19.13;5.22;;;;;;;12.18;100.00;100855.59;5072842;28;20036;-56
2022/01/02 10:40:35;;;;;;;16.30;4.57;;;;;;;12.11;100.00;100851.47;5072455;28;20056;-50
2022/01/02 10:43:03;;;;;;;20.10;5.18;;;;;;;12.20;100.00;100872.25;5072927;28;20032;-50
2022/01/02 10:45:36;;;;;;;18.30;5.00;;;;;;;12.50;100.00;100922.97;5072456;28;20032;-55
2022/01/02 10:48:03;;;;;;;19.17;5.57;;;;;;;12.58;100.00;100936.75;5072646;28;20025;-53
2022/01/02 10:50:28;;;;;;;14.20;6.00;;;;;;;12.61;100.00;100915.50;5072481;28;20024;-50
2022/01/02 10:52:54;;;;;;;21.95;5.20;;;;;;;12.55;100.00;100905.19;5054547;28;20033;-52
2022/01/02 10:55:20;;;;;;;19.20;5.47;;;;;;;12.69;100.00;100951.25;5072483;28;20043;-50
2022/01/02 10:57:47;;;;;;;18.92;5.30;;;;;;;12.71;100.00;100936.19;5072577;28;20040;-48
2022/01/02 11:00:15;;;;;;;19.48;5.10;;;;;;;12.38;100.00;100872.38;5072506;28;20570;-55
2022/01/02 11:02:40;;;;;;;22.00;4.70;;;;;;;12.55;100.00;100911.28;5072493;28;20055;-52
2022/01/02 11:05:08;;;;;;;26.08;5.72;;;;;;;12.71;100.00;100920.34;5072086;28;20533;-54
2022/01/02 11:07:42;;;;;;;27.10;6.55;;;;;;;12.73;100.00;100925.56;5072216;28;20029;-53
2022/01/02 11:10:09;;;;;;;22.48;5.63;;;;;;;12.35;100.00;100874.25;5072087;28;20045;-51
2022/01/02 11:12:34;;;;;;;22.02;5.40;;;;;;;12.31;100.00;100878.81;5072600;28;20032;-54
2022/01/02 11:15:00;;;;;;;30.90;6.28;;;;;;;12.59;100.00;100968.38;5054402;28;20385;-52
2022/01/02 11:17:26;;;;;;;16.73;4.25;;;;;;;12.12;100.00;100890.97;5054307;28;20151;-56